sensor_id;sensor_type;location;lat;lon;timestamp;pressure;altitude;pressure_sealevel;temperature;humidity
76973;BME280;65907;53.640;10.050;2024-01-25T00:18:25;101571.41;;;22.86;35.32
76973;BME280;65907;53.640;10.050;2024-01-25T00:20:50;101561.88;;;22.85;35.52
76973;BME280;65907;53.640;10.050;2024-01-25T00:23:15;101574.22;;;22.83;35.52
76973;BME280;65907;53.640;10.050;2024-01-25T00:25:40;101577.69;;;22.83;35.35
76973;BME280;65907;53.640;10.050;2024-01-25T00:28:06;101570.19;;;22.78;35.43
76973;BME280;65907;53.640;10.050;2024-01-25T00:30:31;101576.28;;;22.79;35.43
76973;BME280;65907;53.640;10.050;2024-01-25T00:32:56;101578.19;;;22.77;35.29
76973;BME280;65907;53.640;10.050;2024-01-25T00:35:22;101574.97;;;22.73;35.36
76973;BME280;65907;53.640;10.050;2024-01-25T00:37:47;101564.47;;;22.73;35.39
76973;BME280;65907;53.640;10.050;2024-01-25T00:40:13;101579.50;;;22.71;35.70
76973;BME280;65907;53.640;10.050;2024-01-25T00:42:45;101580.44;;;22.70;35.32
76973;BME280;65907;53.640;10.050;2024-01-25T00:45:18;101580.69;;;22.67;35.69
76973;BME280;65907;53.640;10.050;2024-01-25T00:47:43;101586.03;;;22.66;35.43
76973;BME280;65907;53.640;10.050;2024-01-25T00:50:09;101584.38;;;22.65;35.61
76973;BME280;65907;53.640;10.050;2024-01-25T00:52:34;101575.91;;;22.61;35.44
76973;BME280;65907;53.640;10.050;2024-01-25T00:55:01;101582.84;;;22.62;35.55
76973;BME280;65907;53.640;10.050;2024-01-25T00:57:27;101596.91;;;22.61;35.42
76973;BME280;65907;53.640;10.050;2024-01-25T00:59:52;101589.03;;;22.61;35.46
76973;BME280;65907;53.640;10.050;2024-01-25T01:02:17;101592.94;;;22.55;35.58
76973;BME280;65907;53.640;10.050;2024-01-25T01:04:45;101596.53;;;22.54;35.56
76973;BME280;65907;53.640;10.050;2024-01-25T01:07:10;101603.44;;;22.55;35.35
76973;BME280;65907;53.640;10.050;2024-01-25T01:09:35;101601.41;;;22.47;35.49
76973;BME280;65907;53.640;10.050;2024-01-25T01:12:01;101600.44;;;22.48;35.50
76973;BME280;65907;53.640;10.050;2024-01-25T01:14:26;101602.09;;;22.49;35.31
76973;BME280;65907;53.640;10.050;2024-01-25T01:16:51;101611.88;;;22.47;35.83
76973;BME280;65907;53.640;10.050;2024-01-25T01:19:16;101605.78;;;22.47;35.60
76973;BME280;65907;53.640;10.050;2024-01-25T01:21:42;101598.84;;;22.46;35.56
76973;BME280;65907;53.640;10.050;2024-01-25T01:24:09;101602.56;;;22.43;35.57
76973;BME280;65907;53.640;10.050;2024-01-25T01:26:34;101596.47;;;22.43;35.48
76973;BME280;65907;53.640;10.050;2024-01-25T01:29:00;101599.31;;;22.40;35.44
76973;BME280;65907;53.640;10.050;2024-01-25T01:31:25;101601.84;;;22.41;35.51
76973;BME280;65907;53.640;10.050;2024-01-25T01:33:50;101600.28;;;22.39;35.38
76973;BME280;65907;53.640;10.050;2024-01-25T01:36:18;101587.16;;;22.39;35.56
76973;BME280;65907;53.640;10.050;2024-01-25T01:38:44;101597.75;;;22.37;35.64
76973;BME280;65907;53.640;10.050;2024-01-25T01:41:09;101604.91;;;22.35;35.55
76973;BME280;65907;53.640;10.050;2024-01-25T01:43:36;101597.03;;;22.35;35.62
76973;BME280;65907;53.640;10.050;2024-01-25T01:46:04;101596.31;;;22.33;35.43
76973;BME280;65907;53.640;10.050;2024-01-25T01:48:31;101582.41;;;22.32;35.83
76973;BME280;65907;53.640;10.050;2024-01-25T01:50:57;101585.13;;;22.31;35.48
76973;BME280;65907;53.640;10.050;2024-01-25T01:53:22;101595.50;;;22.32;35.38
76973;BME280;65907;53.640;10.050;2024-01-25T01:55:47;101601.78;;;22.30;35.39
76973;BME280;65907;53.640;10.050;2024-01-25T01:58:13;101597.63;;;22.27;35.65
76973;BME280;65907;53.640;10.050;2024-01-25T02:00:38;101595.13;;;22.26;35.67
76973;BME280;65907;53.640;10.050;2024-01-25T02:03:04;101612.75;;;22.24;35.46
76973;BME280;65907;53.640;10.050;2024-01-25T02:05:31;101610.22;;;22.22;35.56
76973;BME280;65907;53.640;10.050;2024-01-25T02:07:56;101608.56;;;22.21;35.57
76973;BME280;65907;53.640;10.050;2024-01-25T02:10:22;101606.06;;;22.19;35.59
76973;BME280;65907;53.640;10.050;2024-01-25T02:12:48;101615.59;;;22.20;35.50
76973;BME280;65907;53.640;10.050;2024-01-25T02:15:13;101612.25;;;22.18;35.70
76973;BME280;65907;53.640;10.050;2024-01-25T02:17:39;101629.88;;;22.16;35.67
76973;BME280;65907;53.640;10.050;2024-01-25T02:20:04;101632.69;;;22.13;35.98
76973;BME280;65907;53.640;10.050;2024-01-25T02:22:30;101623.88;;;22.14;35.61
76973;BME280;65907;53.640;10.050;2024-01-25T02:24:55;101635.31;;;22.13;35.67
76973;BME280;65907;53.640;10.050;2024-01-25T02:27:20;101640.47;;;22.15;35.61
76973;BME280;65907;53.640;10.050;2024-01-25T02:29:45;101637.94;;;22.13;35.56
76973;BME280;65907;53.640;10.050;2024-01-25T02:32:11;101637.22;;;22.11;35.62
76973;BME280;65907;53.640;10.050;2024-01-25T02:34:36;101641.63;;;22.11;35.55
76973;BME280;65907;53.640;10.050;2024-01-25T02:37:01;101644.34;;;22.09;35.64
76973;BME280;65907;53.640;10.050;2024-01-25T02:39:27;101639.03;;;22.11;35.79
76973;BME280;65907;53.640;10.050;2024-01-25T02:41:53;101644.50;;;22.08;35.58
76973;BME280;65907;53.640;10.050;2024-01-25T02:44:18;101638.53;;;22.05;35.90
76973;BME280;65907;53.640;10.050;2024-01-25T02:46:43;101649.00;;;22.05;35.60
76973;BME280;65907;53.640;10.050;2024-01-25T02:49:10;101649.97;;;22.04;35.74
76973;BME280;65907;53.640;10.050;2024-01-25T02:51:37;101650.78;;;22.05;35.50
76973;BME280;65907;53.640;10.050;2024-01-25T02:54:02;101657.91;;;22.03;35.57
76973;BME280;65907;53.640;10.050;2024-01-25T02:56:28;101649.34;;;22.01;35.71
76973;BME280;65907;53.640;10.050;2024-01-25T02:58:58;101658.13;;;22.00;35.54
76973;BME280;65907;53.640;10.050;2024-01-25T03:01:24;101655.75;;;21.97;35.70
76973;BME280;65907;53.640;10.050;2024-01-25T03:03:49;101665.38;;;21.96;35.93
76973;BME280;65907;53.640;10.050;2024-01-25T03:06:14;101666.22;;;21.97;35.58
76973;BME280;65907;53.640;10.050;2024-01-25T03:08:39;101669.78;;;21.96;35.69
76973;BME280;65907;53.640;10.050;2024-01-25T03:11:04;101668.13;;;21.95;35.61
76973;BME280;65907;53.640;10.050;2024-01-25T03:13:30;101668.00;;;21.96;35.91
76973;BME280;65907;53.640;10.050;2024-01-25T03:15:55;101664.78;;;21.92;35.54
76973;BME280;65907;53.640;10.050;2024-01-25T03:18:20;101670.13;;;21.91;35.70
76973;BME280;65907;53.640;10.050;2024-01-25T03:20:46;101676.06;;;21.93;35.62
76973;BME280;65907;53.640;10.050;2024-01-25T03:23:11;101673.47;;;21.93;35.51
76973;BME280;65907;53.640;10.050;2024-01-25T03:25:36;101677.34;;;21.87;35.58
76973;BME280;65907;53.640;10.050;2024-01-25T03:28:01;101675.59;;;21.88;35.58
76973;BME280;65907;53.640;10.050;2024-01-25T03:30:27;101684.38;;;21.87;35.70
76973;BME280;65907;53.640;10.050;2024-01-25T03:32:52;101685.44;;;21.84;35.50
76973;BME280;65907;53.640;10.050;2024-01-25T03:35:17;101691.38;;;21.86;35.59
76973;BME280;65907;53.640;10.050;2024-01-25T03:37:43;101692.47;;;21.84;35.57
76973;BME280;65907;53.640;10.050;2024-01-25T03:40:08;101686.50;;;21.82;35.79
76973;BME280;65907;53.640;10.050;2024-01-25T03:42:33;101698.84;;;21.80;35.69
76973;BME280;65907;53.640;10.050;2024-01-25T03:44:59;101704.84;;;21.82;35.76
76973;BME280;65907;53.640;10.050;2024-01-25T03:47:24;101709.31;;;21.80;35.61
76973;BME280;65907;53.640;10.050;2024-01-25T03:49:49;101714.69;;;21.78;35.53
76973;BME280;65907;53.640;10.050;2024-01-25T03:52:14;101718.03;;;21.80;35.45
76973;BME280;65907;53.640;10.050;2024-01-25T03:54:42;101712.06;;;21.78;35.70
76973;BME280;65907;53.640;10.050;2024-01-25T03:57:07;101710.38;;;21.77;35.74
76973;BME280;65907;53.640;10.050;2024-01-25T03:59:32;101705.97;;;21.77;35.50
76973;BME280;65907;53.640;10.050;2024-01-25T04:01:57;101701.69;;;21.76;35.40
76973;BME280;65907;53.640;10.050;2024-01-25T04:04:23;101699.19;;;21.75;35.57
76973;BME280;65907;53.640;10.050;2024-01-25T04:06:48;101707.13;;;21.73;35.54
76973;BME280;65907;53.640;10.050;2024-01-25T04:09:13;101703.69;;;21.73;35.94
76973;BME280;65907;53.640;10.050;2024-01-25T04:11:40;101692.28;;;21.74;35.69
76973;BME280;65907;53.640;10.050;2024-01-25T04:14:05;101705.59;;;21.71;35.65
76973;BME280;65907;53.640;10.050;2024-01-25T04:16:30;101700.47;;;21.69;35.59
76973;BME280;65907;53.640;10.050;2024-01-25T04:18:58;101697.03;;;21.69;35.50
76973;BME280;65907;53.640;10.050;2024-01-25T04:21:23;101707.28;;;21.72;35.65
76973;BME280;65907;53.640;10.050;2024-01-25T04:23:48;101710.09;;;21.69;35.62
76973;BME280;65907;53.640;10.050;2024-01-25T04:26:14;101706.88;;;21.65;35.74
76973;BME280;65907;53.640;10.050;2024-01-25T04:28:39;101698.16;;;21.65;35.67
76973;BME280;65907;53.640;10.050;2024-01-25T04:31:04;101713.00;;;21.64;35.64
76973;BME280;65907;53.640;10.050;2024-01-25T04:33:29;101704.31;;;21.63;35.68
76973;BME280;65907;53.640;10.050;2024-01-25T04:35:55;101703.50;;;21.63;35.56
76973;BME280;65907;53.640;10.050;2024-01-25T04:38:21;101719.19;;;21.63;35.75
76973;BME280;65907;53.640;10.050;2024-01-25T04:40:46;101713.09;;;21.62;35.61
76973;BME280;65907;53.640;10.050;2024-01-25T04:43:11;101731.66;;;21.59;35.72
76973;BME280;65907;53.640;10.050;2024-01-25T04:45:37;101724.53;;;21.61;35.62
76973;BME280;65907;53.640;10.050;2024-01-25T04:48:03;101729.88;;;21.60;35.59
76973;BME280;65907;53.640;10.050;2024-01-25T04:50:28;101725.47;;;21.60;35.66
76973;BME280;65907;53.640;10.050;2024-01-25T04:52:53;101723.16;;;21.56;35.66
76973;BME280;65907;53.640;10.050;2024-01-25T04:55:18;101752.72;;;21.58;35.64
76973;BME280;65907;53.640;10.050;2024-01-25T04:57:45;101742.34;;;21.56;35.72
76973;BME280;65907;53.640;10.050;2024-01-25T05:00:13;101743.38;;;21.54;35.48
76973;BME280;65907;53.640;10.050;2024-01-25T05:02:38;101741.69;;;21.53;35.53
76973;BME280;65907;53.640;10.050;2024-01-25T05:05:06;101751.13;;;21.55;35.83
76973;BME280;65907;53.640;10.050;2024-01-25T05:07:31;101751.94;;;21.56;35.64
76973;BME280;65907;53.640;10.050;2024-01-25T05:09:56;101761.69;;;21.54;35.77
76973;BME280;65907;53.640;10.050;2024-01-25T05:12:21;101761.69;;;21.54;35.53
76973;BME280;65907;53.640;10.050;2024-01-25T05:14:49;101771.56;;;21.50;35.45
76973;BME280;65907;53.640;10.050;2024-01-25T05:17:14;101781.81;;;21.53;35.66
76973;BME280;65907;53.640;10.050;2024-01-25T05:19:40;101775.13;;;21.49;35.50
76973;BME280;65907;53.640;10.050;2024-01-25T05:22:05;101775.34;;;21.46;35.74
76973;BME280;65907;53.640;10.050;2024-01-25T05:24:32;101781.59;;;21.43;35.71
76973;BME280;65907;53.640;10.050;2024-01-25T05:26:58;101797.09;;;21.46;35.77
76973;BME280;65907;53.640;10.050;2024-01-25T05:29:23;101789.16;;;21.48;35.56
76973;BME280;65907;53.640;10.050;2024-01-25T05:31:48;101793.75;;;21.44;35.92
76973;BME280;65907;53.640;10.050;2024-01-25T05:34:14;101799.78;;;21.45;35.51
76973;BME280;65907;53.640;10.050;2024-01-25T05:36:40;101804.22;;;21.44;35.54
76973;BME280;65907;53.640;10.050;2024-01-25T05:39:06;101799.06;;;21.43;35.66
76973;BME280;65907;53.640;10.050;2024-01-25T05:41:32;101794.78;;;21.42;35.65
76973;BME280;65907;53.640;10.050;2024-01-25T05:43:58;101800.94;;;21.41;35.72
76973;BME280;65907;53.640;10.050;2024-01-25T05:46:23;101802.03;;;21.38;35.69
76973;BME280;65907;53.640;10.050;2024-01-25T05:48:50;101795.19;;;21.35;35.51
76973;BME280;65907;53.640;10.050;2024-01-25T05:51:16;101806.31;;;21.39;35.68
76973;BME280;65907;53.640;10.050;2024-01-25T05:53:41;101815.09;;;21.38;35.62
76973;BME280;65907;53.640;10.050;2024-01-25T05:56:06;101816.88;;;21.38;35.79
76973;BME280;65907;53.640;10.050;2024-01-25T05:58:31;101826.38;;;21.39;35.55
76973;BME280;65907;53.640;10.050;2024-01-25T06:00:57;101830.88;;;21.37;35.67
76973;BME280;65907;53.640;10.050;2024-01-25T06:03:25;101838.75;;;21.37;35.84
76973;BME280;65907;53.640;10.050;2024-01-25T06:05:50;101831.84;;;21.35;35.61
76973;BME280;65907;53.640;10.050;2024-01-25T06:08:15;101834.56;;;21.34;35.68
76973;BME280;65907;53.640;10.050;2024-01-25T06:10:41;101833.72;;;21.33;35.43
76973;BME280;65907;53.640;10.050;2024-01-25T06:13:06;101838.00;;;21.34;35.76
76973;BME280;65907;53.640;10.050;2024-01-25T06:15:31;101840.84;;;21.31;35.71
76973;BME280;65907;53.640;10.050;2024-01-25T06:17:56;101839.16;;;21.30;35.77
76973;BME280;65907;53.640;10.050;2024-01-25T06:20:22;101843.31;;;21.33;35.49
76973;BME280;65907;53.640;10.050;2024-01-25T06:22:47;101852.03;;;21.33;35.55
76973;BME280;65907;53.640;10.050;2024-01-25T06:25:13;101854.13;;;21.28;35.64
76973;BME280;65907;53.640;10.050;2024-01-25T06:27:38;101848.78;;;21.30;35.65
76973;BME280;65907;53.640;10.050;2024-01-25T06:30:05;101850.44;;;21.31;35.65
76973;BME280;65907;53.640;10.050;2024-01-25T06:32:30;101855.06;;;21.27;35.64
76973;BME280;65907;53.640;10.050;2024-01-25T06:34:56;101855.88;;;21.28;35.41
76973;BME280;65907;53.640;10.050;2024-01-25T06:37:21;101858.63;;;21.26;35.59
76973;BME280;65907;53.640;10.050;2024-01-25T06:39:46;101856.00;;;21.26;35.77
76973;BME280;65907;53.640;10.050;2024-01-25T06:42:11;101859.34;;;21.28;35.81
76973;BME280;65907;53.640;10.050;2024-01-25T06:44:39;101864.47;;;21.30;35.51
76973;BME280;65907;53.640;10.050;2024-01-25T06:47:04;101877.88;;;21.25;35.65
76973;BME280;65907;53.640;10.050;2024-01-25T06:49:29;101881.44;;;21.24;35.71
76973;BME280;65907;53.640;10.050;2024-01-25T06:51:54;101890.09;;;21.25;35.63
76973;BME280;65907;53.640;10.050;2024-01-25T06:54:20;101891.03;;;21.24;35.56
76973;BME280;65907;53.640;10.050;2024-01-25T06:56:45;101894.41;;;21.26;35.68
76973;BME280;65907;53.640;10.050;2024-01-25T06:59:10;101893.00;;;21.20;35.52
76973;BME280;65907;53.640;10.050;2024-01-25T07:01:35;101891.25;;;21.20;35.69
76973;BME280;65907;53.640;10.050;2024-01-25T07:04:01;101903.38;;;21.22;35.68
76973;BME280;65907;53.640;10.050;2024-01-25T07:06:26;101903.19;;;21.25;35.50
76973;BME280;65907;53.640;10.050;2024-01-25T07:08:51;101911.88;;;21.25;35.51
76973;BME280;65907;53.640;10.050;2024-01-25T07:11:18;101910.94;;;21.26;35.65
76973;BME280;65907;53.640;10.050;2024-01-25T07:13:43;101920.66;;;21.24;35.67
76973;BME280;65907;53.640;10.050;2024-01-25T07:16:08;101924.41;;;21.20;35.83
76973;BME280;65907;53.640;10.050;2024-01-25T07:18:34;101912.19;;;21.20;35.90
76973;BME280;65907;53.640;10.050;2024-01-25T07:20:59;101916.69;;;21.18;35.86
76973;BME280;65907;53.640;10.050;2024-01-25T07:23:24;101914.06;;;21.18;35.45
76973;BME280;65907;53.640;10.050;2024-01-25T07:25:51;101909.66;;;21.19;35.68
76973;BME280;65907;53.640;10.050;2024-01-25T07:28:18;101917.50;;;21.19;35.47
76973;BME280;65907;53.640;10.050;2024-01-25T07:30:43;101915.00;;;21.17;35.91
76973;BME280;65907;53.640;10.050;2024-01-25T07:33:11;101921.38;;;21.13;35.67
76973;BME280;65907;53.640;10.050;2024-01-25T07:35:36;101920.31;;;21.16;35.41
76973;BME280;65907;53.640;10.050;2024-01-25T07:38:10;101925.66;;;21.14;35.82
76973;BME280;65907;53.640;10.050;2024-01-25T07:40:35;101926.59;;;21.13;35.73
76973;BME280;65907;53.640;10.050;2024-01-25T07:43:00;101929.09;;;21.15;35.57
76973;BME280;65907;53.640;10.050;2024-01-25T07:45:26;101933.59;;;21.13;35.67
76973;BME280;65907;53.640;10.050;2024-01-25T07:47:51;101931.09;;;21.11;35.42
76973;BME280;65907;53.640;10.050;2024-01-25T07:50:16;101939.75;;;21.12;35.68
76973;BME280;65907;53.640;10.050;2024-01-25T07:52:42;101949.19;;;21.14;35.90
76973;BME280;65907;53.640;10.050;2024-01-25T07:55:07;101951.09;;;21.12;35.75
76973;BME280;65907;53.640;10.050;2024-01-25T07:57:32;101951.09;;;21.12;35.76
76973;BME280;65907;53.640;10.050;2024-01-25T07:59:58;101953.78;;;21.11;35.68
76973;BME280;65907;53.640;10.050;2024-01-25T08:02:23;101957.44;;;21.08;35.80
76973;BME280;65907;53.640;10.050;2024-01-25T08:04:48;101955.47;;;21.12;35.85
76973;BME280;65907;53.640;10.050;2024-01-25T08:07:13;101961.72;;;21.09;35.86
76973;BME280;65907;53.640;10.050;2024-01-25T08:09:39;101959.00;;;21.11;35.68
76973;BME280;65907;53.640;10.050;2024-01-25T08:12:04;101964.25;;;21.11;35.89
76973;BME280;65907;53.640;10.050;2024-01-25T08:14:29;101970.66;;;21.19;35.93
76973;BME280;65907;53.640;10.050;2024-01-25T08:16:54;101966.44;;;21.17;35.93
76973;BME280;65907;53.640;10.050;2024-01-25T08:19:20;101962.16;;;21.16;35.69
76973;BME280;65907;53.640;10.050;2024-01-25T08:21:46;101970.66;;;21.19;35.66
76973;BME280;65907;53.640;10.050;2024-01-25T08:24:11;101977.03;;;21.15;35.83
76973;BME280;65907;53.640;10.050;2024-01-25T08:26:36;101971.34;;;21.09;35.87
76973;BME280;65907;53.640;10.050;2024-01-25T08:29:02;101973.03;;;21.10;36.10
76973;BME280;65907;53.640;10.050;2024-01-25T08:31:28;101973.97;;;21.09;35.98
76973;BME280;65907;53.640;10.050;2024-01-25T08:33:53;101970.81;;;21.03;35.98
76973;BME280;65907;53.640;10.050;2024-01-25T08:36:19;101968.19;;;21.03;35.85
76973;BME280;65907;53.640;10.050;2024-01-25T08:38:44;101978.75;;;21.02;36.21
76973;BME280;65907;53.640;10.050;2024-01-25T08:41:12;101989.75;;;21.07;36.08
76973;BME280;65907;53.640;10.050;2024-01-25T08:43:40;101992.69;;;21.02;35.72
76973;BME280;65907;53.640;10.050;2024-01-25T08:46:05;101996.97;;;21.03;36.10
76973;BME280;65907;53.640;10.050;2024-01-25T08:48:30;101990.25;;;20.99;36.38
76973;BME280;65907;53.640;10.050;2024-01-25T08:50:56;101996.78;;;21.06;35.97
76973;BME280;65907;53.640;10.050;2024-01-25T08:53:21;101993.03;;;20.96;36.66
76973;BME280;65907;53.640;10.050;2024-01-25T08:58:21;101997.34;;;20.97;36.18
76973;BME280;65907;53.640;10.050;2024-01-25T09:00:47;102000.16;;;20.94;36.37
76973;BME280;65907;53.640;10.050;2024-01-25T09:03:12;102002.69;;;20.96;36.25
76973;BME280;65907;53.640;10.050;2024-01-25T09:05:38;102007.06;;;20.95;36.55
76973;BME280;65907;53.640;10.050;2024-01-25T09:08:11;101996.59;;;20.95;36.63
76973;BME280;65907;53.640;10.050;2024-01-25T09:10:36;102003.50;;;20.96;36.64
76973;BME280;65907;53.640;10.050;2024-01-25T09:13:04;102003.34;;;20.99;36.33
76973;BME280;65907;53.640;10.050;2024-01-25T09:15:29;102011.41;;;21.09;36.27
76973;BME280;65907;53.640;10.050;2024-01-25T09:17:54;102013.28;;;21.07;36.40
76973;BME280;65907;53.640;10.050;2024-01-25T09:20:20;102015.69;;;21.10;36.44
76973;BME280;65907;53.640;10.050;2024-01-25T09:22:45;102019.09;;;21.12;36.53
76973;BME280;65907;53.640;10.050;2024-01-25T09:25:10;102021.78;;;21.11;36.82
76973;BME280;65907;53.640;10.050;2024-01-25T09:27:36;102019.09;;;21.12;36.33
76973;BME280;65907;53.640;10.050;2024-01-25T09:30:02;102025.13;;;21.13;36.89
76973;BME280;65907;53.640;10.050;2024-01-25T09:32:27;102041.69;;;21.13;36.96
76973;BME280;65907;53.640;10.050;2024-01-25T09:34:52;102040.75;;;21.14;36.83
76973;BME280;65907;53.640;10.050;2024-01-25T09:37:19;102040.84;;;21.13;37.13
76973;BME280;65907;53.640;10.050;2024-01-25T09:39:47;102045.13;;;21.14;37.19
76973;BME280;65907;53.640;10.050;2024-01-25T09:42:12;102044.31;;;21.13;37.41
76973;BME280;65907;53.640;10.050;2024-01-25T09:44:37;102052.03;;;21.15;37.46
76973;BME280;65907;53.640;10.050;2024-01-25T09:47:03;102045.97;;;21.14;37.66
76973;BME280;65907;53.640;10.050;2024-01-25T09:49:28;102049.41;;;21.15;37.75
76973;BME280;65907;53.640;10.050;2024-01-25T09:51:53;102046.06;;;21.13;37.81
76973;BME280;65907;53.640;10.050;2024-01-25T09:54:20;102054.59;;;21.02;36.71
76973;BME280;65907;53.640;10.050;2024-01-25T09:56:46;102054.06;;;19.61;35.16
76973;BME280;65907;53.640;10.050;2024-01-25T09:59:16;102049.94;;;19.73;35.92
76973;BME280;65907;53.640;10.050;2024-01-25T10:01:41;102060.88;;;20.11;36.33
76973;BME280;65907;53.640;10.050;2024-01-25T10:04:06;102057.66;;;20.36;36.32
76973;BME280;65907;53.640;10.050;2024-01-25T10:06:36;102059.25;;;20.53;36.23
76973;BME280;65907;53.640;10.050;2024-01-25T10:09:01;102063.75;;;20.66;36.55
76973;BME280;65907;53.640;10.050;2024-01-25T10:11:28;102046.63;;;20.74;36.19
76973;BME280;65907;53.640;10.050;2024-01-25T10:14:00;102049.91;;;20.78;36.50
76973;BME280;65907;53.640;10.050;2024-01-25T10:16:25;102047.41;;;20.91;36.35
76973;BME280;65907;53.640;10.050;2024-01-25T10:18:51;102045.66;;;20.91;36.56
76973;BME280;65907;53.640;10.050;2024-01-25T10:21:17;102039.00;;;20.86;36.61
76973;BME280;65907;53.640;10.050;2024-01-25T10:23:45;102046.66;;;20.89;36.64
76973;BME280;65907;53.640;10.050;2024-01-25T10:26:12;102046.00;;;20.85;36.62
76973;BME280;65907;53.640;10.050;2024-01-25T10:28:37;102046.84;;;20.86;36.53
76973;BME280;65907;53.640;10.050;2024-01-25T10:31:03;102049.47;;;20.86;36.42
76973;BME280;65907;53.640;10.050;2024-01-25T10:33:32;102044.25;;;20.86;36.48
76973;BME280;65907;53.640;10.050;2024-01-25T10:35:58;102059.06;;;20.85;36.75
76973;BME280;65907;53.640;10.050;2024-01-25T10:38:31;102047.53;;;20.89;36.46
76973;BME280;65907;53.640;10.050;2024-01-25T10:40:57;102055.53;;;20.86;36.65
76973;BME280;65907;53.640;10.050;2024-01-25T10:43:23;102048.72;;;20.84;36.72
76973;BME280;65907;53.640;10.050;2024-01-25T10:45:49;102061.81;;;20.84;36.75
76973;BME280;65907;53.640;10.050;2024-01-25T10:48:20;102065.34;;;20.83;36.66
76973;BME280;65907;53.640;10.050;2024-01-25T10:50:46;102058.44;;;20.82;36.74
76973;BME280;65907;53.640;10.050;2024-01-25T10:53:12;102075.81;;;20.83;36.63
76973;BME280;65907;53.640;10.050;2024-01-25T10:55:39;102075.81;;;20.83;36.60
76973;BME280;65907;53.640;10.050;2024-01-25T10:58:06;102072.50;;;20.79;36.83
76973;BME280;65907;53.640;10.050;2024-01-25T11:00:31;102074.28;;;20.78;36.28
76973;BME280;65907;53.640;10.050;2024-01-25T11:02:58;102074.03;;;20.83;36.68
76973;BME280;65907;53.640;10.050;2024-01-25T11:05:23;102076.63;;;20.83;36.54
76973;BME280;65907;53.640;10.050;2024-01-25T11:07:49;102063.56;;;20.83;36.55
76973;BME280;65907;53.640;10.050;2024-01-25T11:10:16;102073.19;;;20.83;36.76
76973;BME280;65907;53.640;10.050;2024-01-25T11:13:00;102073.19;;;20.83;36.44
76973;BME280;65907;53.640;10.050;2024-01-25T11:15:44;102074.94;;;20.82;36.67
76973;BME280;65907;53.640;10.050;2024-01-25T11:18:10;102071.41;;;20.83;36.55
76973;BME280;65907;53.640;10.050;2024-01-25T11:20:37;102073.09;;;20.84;36.85
76973;BME280;65907;53.640;10.050;2024-01-25T11:23:04;102066.19;;;20.83;36.68
76973;BME280;65907;53.640;10.050;2024-01-25T11:25:33;102077.28;;;20.87;36.70
76973;BME280;65907;53.640;10.050;2024-01-25T11:28:00;102067.66;;;20.87;36.61
76973;BME280;65907;53.640;10.050;2024-01-25T11:30:26;102065.16;;;20.86;36.76
76973;BME280;65907;53.640;10.050;2024-01-25T11:32:51;102067.66;;;20.87;36.91
76973;BME280;65907;53.640;10.050;2024-01-25T11:35:17;102061.53;;;20.88;36.53
76973;BME280;65907;53.640;10.050;2024-01-25T11:37:43;102064.78;;;20.92;36.63
76973;BME280;65907;53.640;10.050;2024-01-25T11:40:09;102064.78;;;20.92;36.47
76973;BME280;65907;53.640;10.050;2024-01-25T11:42:34;102055.38;;;20.89;36.58
76973;BME280;65907;53.640;10.050;2024-01-25T11:45:01;102061.03;;;20.96;36.70
76973;BME280;65907;53.640;10.050;2024-01-25T11:47:26;102069.06;;;20.93;36.61
76973;BME280;65907;53.640;10.050;2024-01-25T11:49:51;102064.78;;;20.92;36.86
76973;BME280;65907;53.640;10.050;2024-01-25T11:52:16;102068.97;;;20.95;36.93
76973;BME280;65907;53.640;10.050;2024-01-25T11:54:42;102071.41;;;20.98;36.89
76973;BME280;65907;53.640;10.050;2024-01-25T11:57:07;102067.84;;;20.99;36.88
76973;BME280;65907;53.640;10.050;2024-01-25T11:59:32;102067.78;;;21.00;37.10
76973;BME280;65907;53.640;10.050;2024-01-25T12:01:58;102067.09;;;20.53;35.94
76973;BME280;65907;53.640;10.050;2024-01-25T12:04:24;102066.72;;;19.37;36.25
76973;BME280;65907;53.640;10.050;2024-01-25T12:06:49;102071.97;;;18.70;36.59
76973;BME280;65907;53.640;10.050;2024-01-25T12:09:14;102063.66;;;18.79;36.76
76973;BME280;65907;53.640;10.050;2024-01-25T12:11:40;102057.72;;;19.43;36.27
76973;BME280;65907;53.640;10.050;2024-01-25T12:16:32;102051.72;;;20.18;35.98
76973;BME280;65907;53.640;10.050;2024-01-25T12:18:57;102047.28;;;20.34;35.59
76973;BME280;65907;53.640;10.050;2024-01-25T12:21:23;102046.75;;;20.44;36.04
76973;BME280;65907;53.640;10.050;2024-01-25T12:23:48;102046.94;;;20.55;35.81
76973;BME280;65907;53.640;10.050;2024-01-25T12:26:13;102046.38;;;20.65;35.73
76973;BME280;65907;53.640;10.050;2024-01-25T12:28:41;102043.94;;;20.76;35.82
76973;BME280;65907;53.640;10.050;2024-01-25T12:31:06;102044.13;;;20.87;35.77
76973;BME280;65907;53.640;10.050;2024-01-25T12:33:32;102034.34;;;20.91;35.85
76973;BME280;65907;53.640;10.050;2024-01-25T12:35:58;102036.66;;;20.96;36.09
76973;BME280;65907;53.640;10.050;2024-01-25T12:38:23;102037.94;;;21.03;35.94
76973;BME280;65907;53.640;10.050;2024-01-25T12:40:50;102042.91;;;21.08;36.49
76973;BME280;65907;53.640;10.050;2024-01-25T12:43:15;102039.59;;;21.18;36.04
76973;BME280;65907;53.640;10.050;2024-01-25T12:45:41;102040.16;;;21.24;35.91
76973;BME280;65907;53.640;10.050;2024-01-25T12:48:07;102046.13;;;21.26;36.09
76973;BME280;65907;53.640;10.050;2024-01-25T12:50:33;102036.09;;;21.32;35.88
76973;BME280;65907;53.640;10.050;2024-01-25T12:52:58;102046.38;;;21.35;36.42
76973;BME280;65907;53.640;10.050;2024-01-25T12:55:24;102045.22;;;21.40;36.40